createdAt,value
2022-08-21T00:03:58.156Z,19.30
2022-08-21T00:08:52.748Z,19.30
2022-08-21T00:13:45.069Z,19.30
2022-08-21T00:18:40.140Z,19.30
2022-08-21T00:23:35.416Z,19.30
2022-08-21T00:28:27.869Z,19.20
2022-08-21T00:33:20.734Z,19.20
2022-08-21T00:38:13.398Z,19.20
2022-08-21T00:43:07.958Z,19.20
2022-08-21T00:48:00.529Z,19.20
2022-08-21T00:52:53.573Z,19.20
2022-08-21T00:57:50.848Z,19.20
2022-08-21T01:02:43.972Z,19.20
2022-08-21T01:07:36.981Z,19.20
2022-08-21T01:12:29.447Z,19.20
2022-08-21T01:17:23.160Z,19.20
2022-08-21T01:22:15.793Z,19.20
2022-08-21T01:27:08.244Z,19.10
2022-08-21T01:32:05.440Z,19.00
2022-08-21T01:36:57.683Z,18.80
2022-08-21T01:41:49.893Z,18.80
2022-08-21T01:46:42.293Z,18.80
2022-08-21T01:51:34.521Z,18.90
2022-08-21T01:56:29.001Z,18.80
2022-08-21T02:01:21.346Z,18.80
2022-08-21T02:06:18.943Z,18.80
2022-08-21T02:11:11.450Z,18.80
2022-08-21T02:16:04.030Z,18.80
2022-08-21T02:20:56.862Z,18.70
2022-08-21T02:25:50.282Z,18.70
2022-08-21T02:30:47.143Z,18.70
2022-08-21T02:35:43.134Z,18.60
2022-08-21T02:40:39.180Z,18.60
2022-08-21T02:45:37.611Z,18.60
2022-08-21T02:50:40.093Z,18.60
2022-08-21T02:55:34.022Z,18.70
2022-08-21T03:00:28.644Z,18.80
2022-08-21T03:05:20.914Z,18.80
2022-08-21T03:10:13.111Z,18.80
2022-08-21T03:15:07.663Z,18.80
2022-08-21T03:20:00.512Z,18.90
2022-08-21T03:24:52.934Z,18.80
2022-08-21T03:29:45.189Z,18.80
2022-08-21T03:34:41.555Z,18.80
2022-08-21T03:39:33.893Z,18.70
2022-08-21T03:44:26.908Z,18.80
2022-08-21T03:49:19.213Z,18.70
2022-08-21T03:54:11.467Z,18.60
2022-08-21T03:59:04.642Z,18.60
2022-08-21T04:03:56.896Z,18.60
2022-08-21T04:08:49.313Z,18.50
2022-08-21T04:13:44.471Z,18.60
2022-08-21T04:18:37.040Z,18.60
2022-08-21T04:23:29.308Z,18.50
2022-08-21T04:28:23.526Z,18.50
2022-08-21T04:33:22.496Z,18.50
2022-08-21T04:38:14.787Z,18.50
2022-08-21T04:43:09.473Z,18.50
2022-08-21T04:48:08.704Z,18.60
2022-08-21T04:53:03.140Z,18.60
2022-08-21T04:57:57.147Z,18.70
2022-08-21T05:02:51.065Z,18.80
2022-08-21T05:07:46.332Z,18.90
2022-08-21T05:12:38.825Z,19.10
2022-08-21T05:17:32.028Z,19.10
2022-08-21T05:22:25.865Z,19.20
2022-08-21T05:27:19.089Z,19.20
2022-08-21T05:32:14.073Z,19.40
2022-08-21T05:37:07.841Z,19.60
2022-08-21T05:42:00.751Z,19.80
2022-08-21T05:46:53.106Z,19.90
2022-08-21T05:51:45.444Z,19.90
2022-08-21T05:56:38.274Z,19.90
2022-08-21T06:01:31.741Z,19.90
2022-08-21T06:06:24.066Z,20.30
2022-08-21T06:11:16.297Z,20.60
2022-08-21T06:16:17.226Z,20.80
2022-08-21T06:21:10.317Z,20.90
2022-08-21T06:26:04.380Z,21.10
2022-08-21T06:30:56.757Z,21.30
2022-08-21T06:35:49.582Z,21.40
2022-08-21T06:40:43.890Z,21.70
2022-08-21T06:45:40.387Z,21.90
2022-08-21T06:50:33.121Z,22.10
2022-08-21T06:55:29.108Z,22.40
2022-08-21T07:00:22.468Z,22.70
2022-08-21T07:05:17.958Z,22.90
2022-08-21T07:10:14.600Z,22.90
2022-08-21T07:15:14.984Z,22.90
2022-08-21T07:20:07.850Z,22.90
2022-08-21T07:25:00.045Z,23.20
2022-08-21T07:29:52.279Z,23.50
2022-08-21T07:34:44.831Z,23.40
2022-08-21T07:39:37.588Z,23.40
2022-08-21T07:44:29.966Z,23.70
2022-08-21T07:49:22.142Z,23.80
2022-08-21T07:54:17.231Z,23.80
2022-08-21T07:59:09.844Z,23.50
2022-08-21T08:04:02.087Z,23.60
2022-08-21T08:08:54.599Z,23.70
2022-08-21T08:13:49.937Z,23.60
2022-08-21T08:18:43.238Z,23.70
2022-08-21T08:23:36.237Z,23.70
2022-08-21T08:28:28.489Z,23.80
2022-08-21T08:33:20.921Z,24.00
2022-08-21T08:38:13.593Z,24.40
2022-08-21T08:43:06.574Z,25.00
2022-08-21T08:48:06.305Z,25.60
2022-08-21T08:53:13.415Z,25.80
2022-08-21T08:58:06.773Z,25.90
2022-08-21T09:03:02.556Z,26.10
2022-08-21T09:08:23.686Z,26.20
2022-08-21T09:13:29.177Z,26.30
2022-08-21T09:18:39.986Z,26.20
2022-08-21T09:23:56.902Z,26.10
2022-08-21T09:29:01.792Z,26.10
2022-08-21T09:34:06.482Z,25.90
2022-08-21T09:38:59.387Z,26.00
2022-08-21T09:43:55.964Z,26.40
2022-08-21T09:48:54.489Z,26.30
2022-08-21T09:53:54.576Z,26.50
2022-08-21T09:58:50.404Z,26.40
2022-08-21T10:03:42.768Z,26.10
2022-08-21T10:08:36.682Z,26.30
2022-08-21T10:13:55.437Z,26.30
2022-08-21T10:19:10.125Z,26.00
2022-08-21T10:24:11.326Z,26.20
2022-08-21T10:30:12.635Z,26.40
2022-08-21T10:35:31.520Z,26.60
2022-08-21T10:40:30.885Z,27.10
2022-08-21T10:46:01.857Z,27.50
2022-08-21T10:51:29.135Z,27.70
2022-08-21T10:56:34.638Z,27.60
2022-08-21T11:01:39.757Z,27.50
2022-08-21T11:06:34.107Z,27.70
2022-08-21T11:12:11.459Z,27.70
2022-08-21T11:17:21.771Z,27.70
2022-08-21T11:22:34.504Z,28.20
2022-08-21T11:27:30.115Z,29.10
2022-08-21T11:33:05.255Z,30.00
2022-08-21T11:38:25.288Z,30.40
2022-08-21T11:43:38.841Z,31.70
2022-08-21T11:49:00.101Z,31.70
2022-08-21T11:54:31.012Z,30.90
2022-08-21T12:00:19.304Z,30.50
2022-08-21T12:06:26.617Z,29.80
2022-08-21T12:12:33.594Z,28.90
2022-08-21T12:18:40.950Z,28.10
2022-08-21T12:24:48.929Z,27.70
2022-08-21T12:30:58.225Z,27.50
2022-08-21T12:37:06.343Z,27.40
2022-08-21T12:43:13.552Z,26.80
2022-08-21T12:49:20.595Z,26.20
2022-08-21T12:55:29.768Z,26.30
2022-08-21T13:01:41.416Z,26.10
2022-08-21T13:07:48.508Z,26.40
2022-08-21T13:13:58.215Z,26.10
2022-08-21T13:20:08.061Z,26.20
2022-08-21T13:26:18.368Z,26.40
2022-08-21T13:32:25.968Z,26.30
2022-08-21T13:38:32.816Z,26.00
2022-08-21T13:44:39.965Z,26.10
2022-08-21T13:50:47.276Z,26.00
2022-08-21T13:56:55.800Z,25.90
2022-08-21T14:02:24.009Z,25.80
2022-08-21T14:07:27.002Z,25.80
2022-08-21T14:12:36.481Z,25.90
2022-08-21T14:17:36.419Z,25.70
2022-08-21T14:22:44.582Z,25.50
2022-08-21T14:28:00.701Z,25.40
2022-08-21T14:32:53.170Z,25.40
2022-08-21T14:37:47.193Z,25.70
2022-08-21T14:42:43.025Z,25.70
2022-08-21T14:47:35.370Z,25.80
2022-08-21T14:52:27.613Z,25.80
2022-08-21T14:57:19.927Z,25.70
2022-08-21T15:02:12.682Z,25.60
2022-08-21T15:07:05.483Z,25.60
2022-08-21T15:12:02.165Z,25.50
2022-08-21T15:16:55.428Z,25.40
2022-08-21T15:21:49.202Z,25.20
2022-08-21T15:26:43.897Z,24.90
2022-08-21T15:31:37.516Z,24.70
2022-08-21T15:36:29.833Z,24.50
2022-08-21T15:41:22.169Z,24.50
2022-08-21T15:46:16.852Z,24.50
2022-08-21T15:51:11.273Z,24.40
2022-08-21T15:56:04.257Z,24.50
2022-08-21T16:01:01.281Z,24.60
2022-08-21T16:05:56.945Z,24.50
2022-08-21T16:10:49.396Z,24.20
2022-08-21T16:15:41.727Z,23.90
2022-08-21T16:20:34.085Z,23.50
2022-08-21T16:25:27.208Z,23.20
2022-08-21T16:30:20.513Z,22.90
2022-08-21T16:35:16.204Z,22.50
2022-08-21T16:40:11.265Z,22.30
2022-08-21T16:45:06.188Z,22.00
2022-08-21T16:49:58.677Z,21.80
2022-08-21T16:54:50.921Z,21.60
2022-08-21T16:59:43.432Z,21.50
2022-08-21T17:04:35.861Z,21.30
2022-08-21T17:09:28.833Z,21.20
2022-08-21T17:14:23.684Z,21.20
2022-08-21T17:19:16.306Z,21.10
2022-08-21T17:24:09.631Z,21.00
2022-08-21T17:29:09.890Z,21.00
2022-08-21T17:34:02.535Z,20.90
2022-08-21T17:38:55.843Z,20.80
2022-08-21T17:43:48.642Z,20.70
2022-08-21T17:48:41.047Z,20.50
2022-08-21T17:53:40.144Z,20.40
2022-08-21T17:58:33.058Z,20.20
2022-08-21T18:04:23.431Z,20.10
2022-08-21T18:10:31.852Z,19.90
2022-08-21T18:16:41.196Z,19.60
2022-08-21T18:22:50.510Z,19.40
2022-08-21T18:28:58.948Z,19.20
2022-08-21T18:35:05.904Z,19.00
2022-08-21T18:41:13.285Z,18.70
2022-08-21T18:47:22.748Z,18.60
2022-08-21T18:53:30.042Z,18.40
2022-08-21T18:59:37.507Z,18.20
2022-08-21T19:05:47.076Z,18.10
2022-08-21T19:11:55.591Z,18.00
2022-08-21T19:18:05.010Z,17.80
2022-08-21T19:24:17.289Z,17.80
2022-08-21T19:30:25.980Z,17.60
2022-08-21T19:36:34.335Z,17.50
2022-08-21T19:42:42.946Z,17.30
2022-08-21T19:48:50.214Z,17.10
2022-08-21T19:54:57.387Z,17.10
2022-08-21T20:01:05.541Z,17.00
2022-08-21T20:06:24.604Z,16.90
2022-08-21T20:11:21.681Z,16.80
2022-08-21T20:16:15.498Z,16.60
2022-08-21T20:21:11.053Z,16.50
2022-08-21T20:26:03.459Z,16.50
2022-08-21T20:30:59.207Z,16.40
2022-08-21T20:35:52.319Z,16.40
2022-08-21T20:40:46.252Z,16.30
2022-08-21T20:46:34.729Z,16.20
2022-08-21T20:52:41.972Z,16.20
2022-08-21T20:58:50.105Z,16.10
2022-08-21T21:04:57.289Z,16.00
2022-08-21T21:11:06.608Z,15.90
2022-08-21T21:17:13.804Z,15.80
2022-08-21T21:23:21.729Z,15.90
2022-08-21T21:29:29.885Z,15.80
2022-08-21T21:35:38.511Z,15.70
2022-08-21T21:41:47.851Z,15.60
2022-08-21T21:47:54.893Z,15.50
2022-08-21T21:54:01.526Z,15.50
2022-08-21T22:00:08.547Z,15.50
2022-08-21T22:06:16.851Z,15.60
2022-08-21T22:12:24.161Z,15.50
2022-08-21T22:18:32.851Z,15.50
2022-08-21T22:24:40.094Z,15.40
2022-08-21T22:30:47.238Z,15.30
2022-08-21T22:36:55.424Z,15.20
2022-08-21T22:42:34.614Z,15.20
2022-08-21T22:47:34.651Z,15.10
2022-08-21T22:52:37.063Z,15.10
2022-08-21T22:57:33.437Z,15.00
2022-08-21T23:02:44.726Z,14.90
2022-08-21T23:07:43.591Z,15.00
2022-08-21T23:12:39.599Z,14.90
2022-08-21T23:17:49.648Z,14.90
2022-08-21T23:23:00.476Z,14.80
2022-08-21T23:27:56.974Z,14.80
2022-08-21T23:33:27.292Z,14.80
2022-08-21T23:49:48.094Z,14.70
2022-08-21T23:55:05.124Z,14.70
